createdAt,value
2022-08-04T00:04:54.010Z,2.20
2022-08-04T00:10:07.143Z,2.22
2022-08-04T00:15:14.914Z,2.28
2022-08-04T00:20:20.357Z,2.60
2022-08-04T00:25:22.877Z,2.40
2022-08-04T00:30:25.164Z,2.00
2022-08-04T00:35:29.204Z,1.80
2022-08-04T00:40:49.097Z,2.10
2022-08-04T00:46:15.155Z,2.00
2022-08-04T00:51:25.713Z,2.00
2022-08-04T00:56:43.217Z,2.15
2022-08-04T01:01:55.565Z,2.30
2022-08-04T01:07:06.367Z,2.25
2022-08-04T01:12:22.935Z,2.40
2022-08-04T01:17:28.509Z,2.10
2022-08-04T01:22:33.244Z,1.80
2022-08-04T01:27:59.878Z,1.80
2022-08-04T01:33:08.853Z,2.20
2022-08-04T01:38:37.352Z,2.05
2022-08-04T01:43:42.287Z,1.92
2022-08-04T01:48:53.695Z,1.80
2022-08-04T01:53:55.962Z,1.83
2022-08-04T01:58:58.085Z,1.70
2022-08-04T02:04:19.398Z,1.87
2022-08-04T02:09:29.992Z,1.70
2022-08-04T02:14:40.685Z,1.83
2022-08-04T02:19:45.302Z,1.40
2022-08-04T02:24:50.415Z,1.80
2022-08-04T02:29:58.933Z,1.60
2022-08-04T02:35:07.467Z,1.42
2022-08-04T02:40:12.014Z,1.90
2022-08-04T02:45:18.501Z,1.50
2022-08-04T02:50:28.441Z,1.27
2022-08-04T02:55:31.598Z,1.60
2022-08-04T03:00:33.334Z,1.67
2022-08-04T03:06:10.148Z,1.60
2022-08-04T03:11:37.507Z,1.33
2022-08-04T03:16:39.195Z,1.75
2022-08-04T03:21:46.900Z,1.80
2022-08-04T03:27:12.832Z,1.60
2022-08-04T03:32:42.610Z,1.30
2022-08-04T03:38:12.227Z,1.45
2022-08-04T03:43:58.043Z,1.65
2022-08-04T03:49:20.303Z,1.43
2022-08-04T03:54:45.475Z,1.67
2022-08-04T04:00:06.147Z,1.25
2022-08-04T04:05:29.886Z,1.70
2022-08-04T04:11:06.548Z,1.30
2022-08-04T04:16:37.375Z,1.70
2022-08-04T04:21:50.742Z,1.90
2022-08-04T04:27:13.472Z,1.67
2022-08-04T04:32:38.210Z,2.33
2022-08-04T04:37:54.888Z,3.20
2022-08-04T04:43:51.445Z,3.50
2022-08-04T04:49:05.365Z,3.17
2022-08-04T04:54:11.413Z,3.47
2022-08-04T04:59:21.984Z,4.00
2022-08-04T05:04:51.865Z,3.70
2022-08-04T05:10:30.376Z,3.40
2022-08-04T05:15:35.797Z,3.40
2022-08-04T05:20:50.985Z,3.88
2022-08-04T05:26:09.645Z,4.17
2022-08-04T05:31:21.504Z,4.03
2022-08-04T05:36:49.485Z,3.88
2022-08-04T05:41:55.320Z,3.47
2022-08-04T05:47:01.219Z,4.20
2022-08-04T05:52:04.710Z,4.55
2022-08-04T05:57:07.851Z,5.00
2022-08-04T06:02:10.192Z,5.10
2022-08-04T06:07:13.337Z,5.13
2022-08-04T06:12:20.975Z,5.18
2022-08-04T06:19:57.052Z,5.55
2022-08-04T06:22:58.660Z,5.30
2022-08-04T06:28:02.268Z,5.37
2022-08-04T06:33:05.280Z,6.50
2022-08-04T06:38:08.610Z,5.28
2022-08-04T06:43:11.005Z,5.07
2022-08-04T06:48:14.929Z,5.40
2022-08-04T06:53:17.871Z,5.45
2022-08-04T06:58:21.768Z,4.47
2022-08-04T07:03:23.760Z,4.37
2022-08-04T07:08:25.677Z,5.10
2022-08-04T07:13:28.436Z,4.05
2022-08-04T07:18:31.909Z,5.87
2022-08-04T07:23:33.836Z,6.35
2022-08-04T07:28:35.589Z,4.30
2022-08-04T07:33:38.146Z,4.85
2022-08-04T07:38:46.625Z,3.90
2022-08-04T07:43:53.833Z,2.50
2022-08-04T07:48:55.702Z,2.55
2022-08-04T07:53:58.345Z,2.83
2022-08-04T08:04:17.338Z,3.03
2022-08-04T08:09:20.222Z,3.05
2022-08-04T08:14:22.213Z,3.22
2022-08-04T08:19:25.678Z,1.83
2022-08-04T08:24:29.618Z,2.00
2022-08-04T08:29:33.986Z,2.07
2022-08-04T08:34:37.355Z,1.60
2022-08-04T08:39:55.849Z,1.90
2022-08-04T08:45:03.619Z,1.77
2022-08-04T08:50:43.077Z,1.50
2022-08-04T08:56:02.871Z,1.70
2022-08-04T09:01:23.580Z,1.63
2022-08-04T09:06:36.931Z,1.47
2022-08-04T09:11:54.587Z,0.98
2022-08-04T09:17:06.432Z,0.73
2022-08-04T09:22:40.245Z,1.10
2022-08-04T09:27:53.974Z,0.80
2022-08-04T09:33:10.676Z,1.10
2022-08-04T09:38:39.476Z,1.10
2022-08-04T09:44:42.937Z,0.50
2022-08-04T09:49:33.604Z,0.70
2022-08-04T09:54:59.136Z,1.30
2022-08-04T10:00:06.088Z,0.97
2022-08-04T10:05:16.214Z,0.60
2022-08-04T10:10:32.556Z,1.02
2022-08-04T10:15:40.313Z,0.73
2022-08-04T10:20:50.853Z,1.05
2022-08-04T10:26:31.258Z,0.70
2022-08-04T10:31:48.331Z,0.80
2022-08-04T10:36:58.270Z,0.77
2022-08-04T10:42:16.006Z,0.93
2022-08-04T10:47:22.211Z,1.20
2022-08-04T10:52:45.167Z,0.60
2022-08-04T10:57:59.606Z,0.60
2022-08-04T11:03:24.489Z,0.98
2022-08-04T11:08:35.258Z,0.80
2022-08-04T11:13:49.458Z,0.77
2022-08-04T11:19:01.019Z,0.77
2022-08-04T11:24:11.599Z,1.00
2022-08-04T11:29:39.127Z,0.85
2022-08-04T11:34:52.780Z,0.30
2022-08-04T11:40:11.639Z,1.15
2022-08-04T11:45:19.455Z,1.10
2022-08-04T11:50:32.390Z,0.68
2022-08-04T11:56:07.699Z,0.80
2022-08-04T12:01:21.838Z,0.90
2022-08-04T12:06:56.782Z,0.70
2022-08-04T12:12:14.223Z,1.03
2022-08-04T12:17:30.532Z,1.00
2022-08-04T12:22:52.803Z,0.80
2022-08-04T12:28:05.769Z,1.00
2022-08-04T12:34:02.878Z,0.90
2022-08-04T12:39:06.439Z,1.10
2022-08-04T12:44:36.778Z,1.00
2022-08-04T12:49:37.305Z,0.90
2022-08-04T12:54:40.430Z,0.80
2022-08-04T12:59:46.341Z,1.27
2022-08-04T13:05:05.909Z,1.00
2022-08-04T13:10:17.564Z,0.80
2022-08-04T13:15:25.617Z,1.25
2022-08-04T13:20:33.449Z,1.00
2022-08-04T13:26:44.490Z,1.00
2022-08-04T13:31:06.575Z,1.00
2022-08-04T13:36:09.808Z,0.98
2022-08-04T13:41:11.835Z,0.85
2022-08-04T13:46:27.940Z,1.00
2022-08-04T13:51:57.598Z,0.83
2022-08-04T13:56:58.727Z,0.90
2022-08-04T14:02:04.868Z,1.20
2022-08-04T14:07:20.604Z,0.87
2022-08-04T14:12:38.853Z,0.90
2022-08-04T14:17:46.720Z,0.90
2022-08-04T14:22:48.504Z,1.40
2022-08-04T14:27:52.888Z,0.95
2022-08-04T14:33:59.701Z,0.95
2022-08-04T14:38:23.813Z,0.97
2022-08-04T14:43:25.595Z,1.17
2022-08-04T14:48:27.325Z,0.90
2022-08-04T14:53:29.057Z,1.38
2022-08-04T14:58:38.751Z,0.60
2022-08-04T15:03:49.957Z,0.83
2022-08-04T15:08:56.967Z,0.90
2022-08-04T15:13:58.825Z,0.85
2022-08-04T15:19:01.182Z,0.77
2022-08-04T15:24:03.226Z,0.68
2022-08-04T15:29:28.884Z,0.90
2022-08-04T15:34:51.379Z,1.10
2022-08-04T15:40:11.787Z,0.70
2022-08-04T15:46:32.885Z,0.80
2022-08-04T15:50:58.521Z,0.80
2022-08-04T15:56:00.269Z,0.73
2022-08-04T16:01:01.938Z,1.08
2022-08-04T16:06:13.236Z,1.10
2022-08-04T16:11:38.227Z,0.85
2022-08-04T16:16:39.935Z,0.75
2022-08-04T16:22:01.766Z,0.80
2022-08-04T16:27:05.754Z,0.93
2022-08-04T16:32:35.604Z,0.90
2022-08-04T16:37:42.298Z,0.70
2022-08-04T16:42:45.295Z,1.02
2022-08-04T16:47:49.959Z,1.10
2022-08-04T16:52:54.376Z,0.63
2022-08-04T16:57:58.176Z,0.77
2022-08-04T17:03:04.246Z,0.80
2022-08-04T17:08:28.614Z,1.90
2022-08-04T17:14:02.815Z,0.50
2022-08-04T17:18:58.824Z,0.63
2022-08-04T17:24:15.665Z,0.77
2022-08-04T17:29:19.948Z,1.80
2022-08-04T17:34:22.412Z,0.80
2022-08-04T17:39:28.379Z,0.70
2022-08-04T17:44:38.036Z,0.80
2022-08-04T17:49:52.659Z,0.73
2022-08-04T17:55:02.799Z,0.80
2022-08-04T18:00:05.346Z,1.13
2022-08-04T18:05:12.201Z,1.13
2022-08-04T18:10:32.815Z,1.27
2022-08-04T18:15:44.192Z,0.82
2022-08-04T18:20:50.103Z,0.90
2022-08-04T18:25:52.383Z,0.90
2022-08-04T18:30:55.288Z,0.80
2022-08-04T18:36:35.282Z,1.13
2022-08-04T18:41:21.457Z,1.33
2022-08-04T18:46:27.092Z,1.40
2022-08-04T18:51:30.902Z,1.27
2022-08-04T18:56:33.732Z,1.20
2022-08-04T19:02:13.325Z,1.00
2022-08-04T19:07:23.160Z,0.85
2022-08-04T19:12:27.226Z,1.00
2022-08-04T19:17:52.492Z,0.95
2022-08-04T19:28:17.311Z,1.10
2022-08-04T19:33:19.440Z,1.17
2022-08-04T19:38:27.219Z,1.10
2022-08-04T19:43:28.945Z,1.15
2022-08-04T19:48:33.375Z,1.45
2022-08-04T19:53:37.302Z,1.77
2022-08-04T19:58:39.984Z,1.30
2022-08-04T20:04:09.947Z,0.98
2022-08-04T20:09:04.725Z,2.20
2022-08-04T20:14:32.756Z,1.60
2022-08-04T20:19:35.108Z,2.08
2022-08-04T20:24:44.133Z,2.00
2022-08-04T20:29:52.300Z,2.50
2022-08-04T20:34:58.079Z,2.30
2022-08-04T20:40:01.012Z,2.30
2022-08-04T20:45:02.841Z,2.45
2022-08-04T20:50:09.081Z,2.92
2022-08-04T20:55:11.348Z,3.17
2022-08-04T21:00:13.669Z,4.10
2022-08-04T21:05:15.437Z,4.00
2022-08-04T21:10:17.312Z,3.25
2022-08-04T21:15:25.492Z,3.47
2022-08-04T21:20:28.323Z,3.33
2022-08-04T21:25:30.638Z,3.13
2022-08-04T21:30:37.006Z,3.63
2022-08-04T21:35:54.773Z,3.47
2022-08-04T21:40:58.804Z,2.80
2022-08-04T21:46:05.038Z,3.00
2022-08-04T21:51:59.055Z,2.53
2022-08-04T21:56:42.793Z,3.10
2022-08-04T22:07:16.392Z,3.00
2022-08-04T22:12:21.130Z,2.93
2022-08-04T22:17:23.739Z,2.50
2022-08-04T22:22:29.016Z,3.20
2022-08-04T22:27:31.574Z,3.15
2022-08-04T22:32:33.944Z,3.30
2022-08-04T22:37:44.912Z,3.67
2022-08-04T22:42:57.712Z,3.30
2022-08-04T22:47:59.416Z,3.17
2022-08-04T22:53:01.310Z,3.45
2022-08-04T22:58:04.936Z,3.43
2022-08-04T23:03:11.274Z,3.00
2022-08-04T23:08:33.052Z,3.10
2022-08-04T23:13:38.360Z,2.90
2022-08-04T23:18:45.266Z,3.33
2022-08-04T23:24:00.799Z,3.15
2022-08-04T23:29:04.421Z,2.70
2022-08-04T23:34:06.229Z,2.07
2022-08-04T23:39:10.259Z,2.35
2022-08-04T23:44:12.107Z,1.40
2022-08-04T23:49:19.355Z,1.40
2022-08-04T23:54:25.685Z,1.47
2022-08-04T23:59:51.822Z,1.00
